sensor_id;sensor_type;location;lat;lon;timestamp;P1;durP1;ratioP1;P2;durP2;ratioP2
40793;SDS011;26502;51.886;15.604;2023-04-05T00:00:21;15.90;;;6.60;;
40793;SDS011;26502;51.886;15.604;2023-04-05T00:05:47;14.00;;;6.10;;
40793;SDS011;26502;51.886;15.604;2023-04-05T00:10:53;10.90;;;6.00;;
40793;SDS011;26502;51.886;15.604;2023-04-05T00:16:00;12.10;;;5.70;;
40793;SDS011;26502;51.886;15.604;2023-04-05T00:21:06;14.80;;;5.80;;
40793;SDS011;26502;51.886;15.604;2023-04-05T00:26:13;28.60;;;10.60;;
40793;SDS011;26502;51.886;15.604;2023-04-05T00:31:21;32.10;;;11.40;;
40793;SDS011;26502;51.886;15.604;2023-04-05T00:36:27;26.20;;;8.80;;
40793;SDS011;26502;51.886;15.604;2023-04-05T00:41:34;18.40;;;9.20;;
40793;SDS011;26502;51.886;15.604;2023-04-05T00:46:41;19.80;;;7.90;;
40793;SDS011;26502;51.886;15.604;2023-04-05T00:51:47;23.60;;;10.00;;
40793;SDS011;26502;51.886;15.604;2023-04-05T00:56:55;29.10;;;13.60;;
40793;SDS011;26502;51.886;15.604;2023-04-05T01:02:05;26.50;;;12.20;;
40793;SDS011;26502;51.886;15.604;2023-04-05T01:07:19;44.90;;;20.40;;
40793;SDS011;26502;51.886;15.604;2023-04-05T01:12:32;37.10;;;16.70;;
40793;SDS011;26502;51.886;15.604;2023-04-05T01:17:40;40.90;;;18.80;;
40793;SDS011;26502;51.886;15.604;2023-04-05T01:28:43;40.00;;;18.60;;
40793;SDS011;26502;51.886;15.604;2023-04-05T01:34:16;27.20;;;14.50;;
40793;SDS011;26502;51.886;15.604;2023-04-05T01:39:29;34.20;;;14.60;;
40793;SDS011;26502;51.886;15.604;2023-04-05T01:44:38;40.90;;;17.80;;
40793;SDS011;26502;51.886;15.604;2023-04-05T01:49:44;60.90;;;24.20;;
40793;SDS011;26502;51.886;15.604;2023-04-05T01:54:50;45.90;;;20.40;;
40793;SDS011;26502;51.886;15.604;2023-04-05T01:59:57;34.90;;;14.30;;
40793;SDS011;26502;51.886;15.604;2023-04-05T02:05:04;29.50;;;10.70;;
40793;SDS011;26502;51.886;15.604;2023-04-05T02:10:12;21.30;;;10.50;;
40793;SDS011;26502;51.886;15.604;2023-04-05T02:15:18;20.90;;;9.50;;
40793;SDS011;26502;51.886;15.604;2023-04-05T02:20:25;24.70;;;10.00;;
40793;SDS011;26502;51.886;15.604;2023-04-05T02:25:31;20.60;;;10.10;;
40793;SDS011;26502;51.886;15.604;2023-04-05T02:30:38;18.40;;;9.20;;
40793;SDS011;26502;51.886;15.604;2023-04-05T02:35:48;19.50;;;9.40;;
40793;SDS011;26502;51.886;15.604;2023-04-05T02:40:54;25.50;;;11.40;;
40793;SDS011;26502;51.886;15.604;2023-04-05T02:46:00;21.90;;;10.50;;
40793;SDS011;26502;51.886;15.604;2023-04-05T02:51:09;18.40;;;9.30;;
40793;SDS011;26502;51.886;15.604;2023-04-05T02:56:17;21.50;;;11.10;;
40793;SDS011;26502;51.886;15.604;2023-04-05T03:01:24;26.10;;;11.90;;
40793;SDS011;26502;51.886;15.604;2023-04-05T03:06:31;22.60;;;11.10;;
40793;SDS011;26502;51.886;15.604;2023-04-05T03:11:39;22.10;;;10.00;;
40793;SDS011;26502;51.886;15.604;2023-04-05T03:16:46;20.80;;;10.10;;
40793;SDS011;26502;51.886;15.604;2023-04-05T03:22:09;22.00;;;10.80;;
40793;SDS011;26502;51.886;15.604;2023-04-05T03:27:17;25.40;;;10.50;;
40793;SDS011;26502;51.886;15.604;2023-04-05T03:32:36;25.20;;;12.00;;
40793;SDS011;26502;51.886;15.604;2023-04-05T03:37:49;25.00;;;11.90;;
40793;SDS011;26502;51.886;15.604;2023-04-05T03:42:55;29.40;;;13.40;;
40793;SDS011;26502;51.886;15.604;2023-04-05T03:48:03;27.70;;;14.90;;
40793;SDS011;26502;51.886;15.604;2023-04-05T03:53:10;21.50;;;9.40;;
40793;SDS011;26502;51.886;15.604;2023-04-05T03:58:20;36.30;;;12.30;;
40793;SDS011;26502;51.886;15.604;2023-04-05T04:03:29;38.50;;;16.10;;
40793;SDS011;26502;51.886;15.604;2023-04-05T04:08:36;41.40;;;17.10;;
40793;SDS011;26502;51.886;15.604;2023-04-05T04:13:42;36.00;;;12.50;;
40793;SDS011;26502;51.886;15.604;2023-04-05T04:19:13;31.10;;;12.40;;
40793;SDS011;26502;51.886;15.604;2023-04-05T04:24:45;31.90;;;13.40;;
40793;SDS011;26502;51.886;15.604;2023-04-05T04:30:13;36.50;;;15.10;;
40793;SDS011;26502;51.886;15.604;2023-04-05T04:35:27;35.00;;;14.30;;
40793;SDS011;26502;51.886;15.604;2023-04-05T04:40:42;33.00;;;14.60;;
40793;SDS011;26502;51.886;15.604;2023-04-05T04:45:59;45.50;;;19.60;;
40793;SDS011;26502;51.886;15.604;2023-04-05T04:51:15;33.10;;;14.90;;
40793;SDS011;26502;51.886;15.604;2023-04-05T04:56:22;30.40;;;12.30;;
40793;SDS011;26502;51.886;15.604;2023-04-05T05:01:29;24.10;;;11.20;;
40793;SDS011;26502;51.886;15.604;2023-04-05T05:06:36;26.60;;;12.90;;
40793;SDS011;26502;51.886;15.604;2023-04-05T05:11:42;27.60;;;13.70;;
40793;SDS011;26502;51.886;15.604;2023-04-05T05:16:49;34.80;;;17.10;;
40793;SDS011;26502;51.886;15.604;2023-04-05T05:21:56;43.40;;;21.10;;
40793;SDS011;26502;51.886;15.604;2023-04-05T05:27:03;39.70;;;18.40;;
40793;SDS011;26502;51.886;15.604;2023-04-05T05:32:09;38.00;;;18.10;;
40793;SDS011;26502;51.886;15.604;2023-04-05T05:37:18;35.70;;;17.50;;
40793;SDS011;26502;51.886;15.604;2023-04-05T05:42:25;132.30;;;49.90;;
40793;SDS011;26502;51.886;15.604;2023-04-05T05:47:31;60.20;;;22.20;;
40793;SDS011;26502;51.886;15.604;2023-04-05T05:52:38;32.90;;;14.00;;
40793;SDS011;26502;51.886;15.604;2023-04-05T05:57:44;31.20;;;12.10;;
40793;SDS011;26502;51.886;15.604;2023-04-05T06:02:50;24.50;;;11.80;;
40793;SDS011;26502;51.886;15.604;2023-04-05T06:07:57;28.20;;;11.70;;
40793;SDS011;26502;51.886;15.604;2023-04-05T06:13:03;48.70;;;16.80;;
40793;SDS011;26502;51.886;15.604;2023-04-05T06:18:09;36.70;;;12.70;;
40793;SDS011;26502;51.886;15.604;2023-04-05T06:23:16;35.30;;;13.20;;
40793;SDS011;26502;51.886;15.604;2023-04-05T06:28:22;27.00;;;11.70;;
40793;SDS011;26502;51.886;15.604;2023-04-05T06:33:28;27.00;;;12.60;;
40793;SDS011;26502;51.886;15.604;2023-04-05T06:38:35;18.00;;;8.80;;
40793;SDS011;26502;51.886;15.604;2023-04-05T06:43:41;21.90;;;8.00;;
40793;SDS011;26502;51.886;15.604;2023-04-05T06:48:47;19.60;;;9.90;;
40793;SDS011;26502;51.886;15.604;2023-04-05T06:53:53;17.90;;;9.00;;
40793;SDS011;26502;51.886;15.604;2023-04-05T06:59:00;16.20;;;6.50;;
40793;SDS011;26502;51.886;15.604;2023-04-05T07:04:07;11.10;;;4.30;;
40793;SDS011;26502;51.886;15.604;2023-04-05T07:09:13;8.20;;;3.80;;
40793;SDS011;26502;51.886;15.604;2023-04-05T07:14:19;9.10;;;4.10;;
40793;SDS011;26502;51.886;15.604;2023-04-05T07:19:25;9.20;;;4.40;;
40793;SDS011;26502;51.886;15.604;2023-04-05T07:24:31;10.90;;;4.90;;
40793;SDS011;26502;51.886;15.604;2023-04-05T07:29:39;8.10;;;4.20;;
40793;SDS011;26502;51.886;15.604;2023-04-05T07:34:46;9.40;;;4.50;;
40793;SDS011;26502;51.886;15.604;2023-04-05T07:39:52;7.90;;;4.50;;
40793;SDS011;26502;51.886;15.604;2023-04-05T07:45:00;9.50;;;5.20;;
40793;SDS011;26502;51.886;15.604;2023-04-05T07:50:07;9.70;;;5.20;;
40793;SDS011;26502;51.886;15.604;2023-04-05T07:55:16;10.70;;;5.50;;
40793;SDS011;26502;51.886;15.604;2023-04-05T08:00:23;11.90;;;6.20;;
40793;SDS011;26502;51.886;15.604;2023-04-05T08:05:29;16.70;;;6.20;;
40793;SDS011;26502;51.886;15.604;2023-04-05T08:10:38;13.60;;;5.30;;
40793;SDS011;26502;51.886;15.604;2023-04-05T08:15:44;24.00;;;12.00;;
40793;SDS011;26502;51.886;15.604;2023-04-05T08:20:52;13.60;;;7.50;;
40793;SDS011;26502;51.886;15.604;2023-04-05T08:25:59;14.60;;;8.90;;
40793;SDS011;26502;51.886;15.604;2023-04-05T08:31:06;6.70;;;3.60;;
40793;SDS011;26502;51.886;15.604;2023-04-05T08:36:12;9.00;;;4.10;;
40793;SDS011;26502;51.886;15.604;2023-04-05T08:41:19;8.30;;;4.10;;
40793;SDS011;26502;51.886;15.604;2023-04-05T08:46:27;6.50;;;3.60;;
40793;SDS011;26502;51.886;15.604;2023-04-05T08:51:36;6.20;;;3.80;;
40793;SDS011;26502;51.886;15.604;2023-04-05T08:56:42;4.70;;;2.60;;
40793;SDS011;26502;51.886;15.604;2023-04-05T09:01:51;2.80;;;1.80;;
40793;SDS011;26502;51.886;15.604;2023-04-05T09:07:00;12.50;;;5.00;;
40793;SDS011;26502;51.886;15.604;2023-04-05T09:12:09;3.50;;;2.10;;
40793;SDS011;26502;51.886;15.604;2023-04-05T09:17:17;3.10;;;1.90;;
40793;SDS011;26502;51.886;15.604;2023-04-05T09:22:24;6.30;;;2.30;;
40793;SDS011;26502;51.886;15.604;2023-04-05T09:27:30;3.90;;;2.20;;
40793;SDS011;26502;51.886;15.604;2023-04-05T09:32:37;3.60;;;2.40;;
40793;SDS011;26502;51.886;15.604;2023-04-05T09:37:52;3.50;;;2.30;;
40793;SDS011;26502;51.886;15.604;2023-04-05T09:43:01;4.10;;;2.00;;
40793;SDS011;26502;51.886;15.604;2023-04-05T09:48:07;3.80;;;2.10;;
40793;SDS011;26502;51.886;15.604;2023-04-05T09:53:15;6.60;;;2.40;;
40793;SDS011;26502;51.886;15.604;2023-04-05T09:58:24;4.20;;;2.20;;
40793;SDS011;26502;51.886;15.604;2023-04-05T10:03:39;5.20;;;1.90;;
40793;SDS011;26502;51.886;15.604;2023-04-05T10:08:51;4.60;;;2.10;;
40793;SDS011;26502;51.886;15.604;2023-04-05T10:13:57;4.50;;;2.30;;
40793;SDS011;26502;51.886;15.604;2023-04-05T10:19:06;4.80;;;2.20;;
40793;SDS011;26502;51.886;15.604;2023-04-05T10:24:20;3.20;;;1.70;;
40793;SDS011;26502;51.886;15.604;2023-04-05T10:29:37;4.20;;;2.30;;
40793;SDS011;26502;51.886;15.604;2023-04-05T10:34:55;2.20;;;1.60;;
40793;SDS011;26502;51.886;15.604;2023-04-05T10:40:09;4.40;;;2.60;;
40793;SDS011;26502;51.886;15.604;2023-04-05T10:45:17;5.20;;;2.40;;
40793;SDS011;26502;51.886;15.604;2023-04-05T10:50:25;4.50;;;2.30;;
40793;SDS011;26502;51.886;15.604;2023-04-05T10:55:31;4.30;;;2.30;;
40793;SDS011;26502;51.886;15.604;2023-04-05T11:00:39;3.50;;;2.10;;
40793;SDS011;26502;51.886;15.604;2023-04-05T11:05:45;4.80;;;2.10;;
40793;SDS011;26502;51.886;15.604;2023-04-05T11:10:52;3.90;;;2.20;;
40793;SDS011;26502;51.886;15.604;2023-04-05T11:16:08;4.80;;;2.30;;
40793;SDS011;26502;51.886;15.604;2023-04-05T11:21:21;2.90;;;2.40;;
40793;SDS011;26502;51.886;15.604;2023-04-05T11:26:33;4.30;;;2.20;;
40793;SDS011;26502;51.886;15.604;2023-04-05T11:31:58;2.00;;;1.80;;
40793;SDS011;26502;51.886;15.604;2023-04-05T11:37:10;3.60;;;1.80;;
40793;SDS011;26502;51.886;15.604;2023-04-05T11:42:18;1.60;;;1.50;;
40793;SDS011;26502;51.886;15.604;2023-04-05T11:47:25;3.50;;;1.50;;
40793;SDS011;26502;51.886;15.604;2023-04-05T11:52:31;2.20;;;1.30;;
40793;SDS011;26502;51.886;15.604;2023-04-05T11:57:38;1.50;;;1.40;;
40793;SDS011;26502;51.886;15.604;2023-04-05T12:02:44;1.60;;;1.40;;
40793;SDS011;26502;51.886;15.604;2023-04-05T12:07:52;3.60;;;1.30;;
40793;SDS011;26502;51.886;15.604;2023-04-05T12:12:58;1.50;;;1.20;;
40793;SDS011;26502;51.886;15.604;2023-04-05T12:18:04;2.30;;;1.30;;
40793;SDS011;26502;51.886;15.604;2023-04-05T12:23:18;1.90;;;1.40;;
40793;SDS011;26502;51.886;15.604;2023-04-05T12:28:24;1.80;;;1.20;;
40793;SDS011;26502;51.886;15.604;2023-04-05T12:33:51;1.50;;;1.00;;
40793;SDS011;26502;51.886;15.604;2023-04-05T12:39:08;2.20;;;1.30;;
40793;SDS011;26502;51.886;15.604;2023-04-05T12:44:15;1.60;;;1.10;;
40793;SDS011;26502;51.886;15.604;2023-04-05T12:49:34;1.80;;;0.80;;
40793;SDS011;26502;51.886;15.604;2023-04-05T12:54:42;2.80;;;1.30;;
40793;SDS011;26502;51.886;15.604;2023-04-05T12:59:58;6.00;;;1.50;;
40793;SDS011;26502;51.886;15.604;2023-04-05T13:05:05;2.20;;;1.20;;
40793;SDS011;26502;51.886;15.604;2023-04-05T13:10:12;1.70;;;1.30;;
40793;SDS011;26502;51.886;15.604;2023-04-05T13:15:19;2.80;;;1.50;;
40793;SDS011;26502;51.886;15.604;2023-04-05T13:20:25;1.90;;;1.10;;
40793;SDS011;26502;51.886;15.604;2023-04-05T13:25:31;3.00;;;1.20;;
40793;SDS011;26502;51.886;15.604;2023-04-05T13:30:37;2.80;;;1.20;;
40793;SDS011;26502;51.886;15.604;2023-04-05T13:35:44;1.70;;;1.00;;
40793;SDS011;26502;51.886;15.604;2023-04-05T13:40:50;3.00;;;1.20;;
40793;SDS011;26502;51.886;15.604;2023-04-05T13:45:57;3.00;;;1.40;;
40793;SDS011;26502;51.886;15.604;2023-04-05T13:51:04;3.70;;;1.80;;
40793;SDS011;26502;51.886;15.604;2023-04-05T13:56:10;1.50;;;1.10;;
40793;SDS011;26502;51.886;15.604;2023-04-05T14:01:17;2.80;;;1.80;;
40793;SDS011;26502;51.886;15.604;2023-04-05T14:06:23;2.00;;;1.40;;
40793;SDS011;26502;51.886;15.604;2023-04-05T14:11:30;3.10;;;1.60;;
40793;SDS011;26502;51.886;15.604;2023-04-05T14:16:36;3.40;;;1.60;;
40793;SDS011;26502;51.886;15.604;2023-04-05T14:21:43;6.20;;;1.50;;
40793;SDS011;26502;51.886;15.604;2023-04-05T14:26:49;3.30;;;1.50;;
40793;SDS011;26502;51.886;15.604;2023-04-05T14:31:56;5.30;;;1.90;;
40793;SDS011;26502;51.886;15.604;2023-04-05T14:37:02;5.00;;;1.30;;
40793;SDS011;26502;51.886;15.604;2023-04-05T14:42:08;5.40;;;1.40;;
40793;SDS011;26502;51.886;15.604;2023-04-05T14:47:15;2.50;;;1.60;;
40793;SDS011;26502;51.886;15.604;2023-04-05T14:52:21;4.60;;;1.50;;
40793;SDS011;26502;51.886;15.604;2023-04-05T14:57:29;4.50;;;1.90;;
40793;SDS011;26502;51.886;15.604;2023-04-05T15:02:36;1.90;;;1.60;;
40793;SDS011;26502;51.886;15.604;2023-04-05T15:07:43;5.70;;;2.00;;
40793;SDS011;26502;51.886;15.604;2023-04-05T15:12:49;6.70;;;1.60;;
40793;SDS011;26502;51.886;15.604;2023-04-05T15:17:56;3.00;;;1.70;;
40793;SDS011;26502;51.886;15.604;2023-04-05T15:23:02;4.40;;;1.70;;
40793;SDS011;26502;51.886;15.604;2023-04-05T15:28:09;2.50;;;1.40;;
40793;SDS011;26502;51.886;15.604;2023-04-05T15:33:16;6.50;;;3.20;;
40793;SDS011;26502;51.886;15.604;2023-04-05T15:38:22;3.10;;;2.50;;
40793;SDS011;26502;51.886;15.604;2023-04-05T15:43:29;3.30;;;2.00;;
40793;SDS011;26502;51.886;15.604;2023-04-05T15:48:36;3.70;;;2.60;;
40793;SDS011;26502;51.886;15.604;2023-04-05T15:53:43;3.00;;;2.30;;
40793;SDS011;26502;51.886;15.604;2023-04-05T15:58:50;3.10;;;2.30;;
40793;SDS011;26502;51.886;15.604;2023-04-05T16:03:56;6.30;;;1.80;;
40793;SDS011;26502;51.886;15.604;2023-04-05T16:09:03;3.00;;;1.80;;
40793;SDS011;26502;51.886;15.604;2023-04-05T16:14:09;3.40;;;1.80;;
40793;SDS011;26502;51.886;15.604;2023-04-05T16:19:16;5.40;;;2.00;;
40793;SDS011;26502;51.886;15.604;2023-04-05T16:24:22;6.10;;;2.90;;
40793;SDS011;26502;51.886;15.604;2023-04-05T16:29:30;5.10;;;2.00;;
40793;SDS011;26502;51.886;15.604;2023-04-05T16:34:37;5.70;;;2.60;;
40793;SDS011;26502;51.886;15.604;2023-04-05T16:39:44;3.40;;;1.90;;
40793;SDS011;26502;51.886;15.604;2023-04-05T16:44:50;4.90;;;2.90;;
40793;SDS011;26502;51.886;15.604;2023-04-05T16:49:57;3.60;;;2.30;;
40793;SDS011;26502;51.886;15.604;2023-04-05T16:55:05;4.60;;;2.00;;
40793;SDS011;26502;51.886;15.604;2023-04-05T17:00:14;4.70;;;1.90;;
40793;SDS011;26502;51.886;15.604;2023-04-05T17:05:21;3.90;;;2.10;;
40793;SDS011;26502;51.886;15.604;2023-04-05T17:10:27;3.90;;;2.00;;
40793;SDS011;26502;51.886;15.604;2023-04-05T17:15:35;2.90;;;2.00;;
40793;SDS011;26502;51.886;15.604;2023-04-05T17:20:42;4.00;;;2.20;;
40793;SDS011;26502;51.886;15.604;2023-04-05T17:25:48;5.30;;;2.00;;
40793;SDS011;26502;51.886;15.604;2023-04-05T17:30:56;4.20;;;2.20;;
40793;SDS011;26502;51.886;15.604;2023-04-05T17:36:02;3.00;;;1.90;;
40793;SDS011;26502;51.886;15.604;2023-04-05T17:41:09;3.10;;;1.70;;
40793;SDS011;26502;51.886;15.604;2023-04-05T17:46:16;3.00;;;1.90;;
40793;SDS011;26502;51.886;15.604;2023-04-05T17:51:23;3.30;;;1.70;;
40793;SDS011;26502;51.886;15.604;2023-04-05T17:56:30;3.60;;;1.80;;
40793;SDS011;26502;51.886;15.604;2023-04-05T18:01:37;5.70;;;1.60;;
40793;SDS011;26502;51.886;15.604;2023-04-05T18:06:43;4.50;;;1.80;;
40793;SDS011;26502;51.886;15.604;2023-04-05T18:11:50;3.50;;;2.00;;
40793;SDS011;26502;51.886;15.604;2023-04-05T18:16:56;3.90;;;2.00;;
40793;SDS011;26502;51.886;15.604;2023-04-05T18:22:04;2.70;;;1.70;;
40793;SDS011;26502;51.886;15.604;2023-04-05T18:27:10;5.30;;;2.50;;
40793;SDS011;26502;51.886;15.604;2023-04-05T18:32:18;6.70;;;2.40;;
40793;SDS011;26502;51.886;15.604;2023-04-05T18:37:24;5.00;;;2.50;;
40793;SDS011;26502;51.886;15.604;2023-04-05T18:42:31;4.90;;;2.00;;
40793;SDS011;26502;51.886;15.604;2023-04-05T18:47:38;6.50;;;2.40;;
40793;SDS011;26502;51.886;15.604;2023-04-05T18:52:44;4.50;;;2.80;;
40793;SDS011;26502;51.886;15.604;2023-04-05T18:57:51;6.20;;;2.30;;
40793;SDS011;26502;51.886;15.604;2023-04-05T19:02:59;4.00;;;2.30;;
40793;SDS011;26502;51.886;15.604;2023-04-05T19:08:05;8.30;;;2.60;;
40793;SDS011;26502;51.886;15.604;2023-04-05T19:13:12;4.40;;;2.80;;
40793;SDS011;26502;51.886;15.604;2023-04-05T19:18:19;5.60;;;2.60;;
40793;SDS011;26502;51.886;15.604;2023-04-05T19:23:27;6.30;;;2.70;;
40793;SDS011;26502;51.886;15.604;2023-04-05T19:28:34;10.30;;;4.80;;
40793;SDS011;26502;51.886;15.604;2023-04-05T19:33:41;10.50;;;4.30;;
40793;SDS011;26502;51.886;15.604;2023-04-05T19:38:47;6.90;;;3.30;;
40793;SDS011;26502;51.886;15.604;2023-04-05T19:43:54;4.80;;;2.80;;
40793;SDS011;26502;51.886;15.604;2023-04-05T19:49:04;9.10;;;3.00;;
40793;SDS011;26502;51.886;15.604;2023-04-05T19:54:12;7.20;;;3.80;;
40793;SDS011;26502;51.886;15.604;2023-04-05T19:59:31;5.30;;;3.10;;
40793;SDS011;26502;51.886;15.604;2023-04-05T20:04:38;4.30;;;2.30;;
40793;SDS011;26502;51.886;15.604;2023-04-05T20:09:45;5.60;;;3.00;;
40793;SDS011;26502;51.886;15.604;2023-04-05T20:14:51;3.90;;;2.60;;
40793;SDS011;26502;51.886;15.604;2023-04-05T20:19:57;7.80;;;3.50;;
40793;SDS011;26502;51.886;15.604;2023-04-05T20:25:06;7.80;;;3.40;;
40793;SDS011;26502;51.886;15.604;2023-04-05T20:30:39;5.80;;;3.10;;
40793;SDS011;26502;51.886;15.604;2023-04-05T20:35:45;6.60;;;3.20;;
40793;SDS011;26502;51.886;15.604;2023-04-05T20:40:52;5.70;;;3.50;;
40793;SDS011;26502;51.886;15.604;2023-04-05T20:46:00;10.00;;;3.60;;
40793;SDS011;26502;51.886;15.604;2023-04-05T20:51:07;7.40;;;3.60;;
40793;SDS011;26502;51.886;15.604;2023-04-05T20:56:15;8.90;;;3.20;;
40793;SDS011;26502;51.886;15.604;2023-04-05T21:01:21;8.30;;;3.60;;
40793;SDS011;26502;51.886;15.604;2023-04-05T21:06:27;7.90;;;3.70;;
40793;SDS011;26502;51.886;15.604;2023-04-05T21:11:34;8.90;;;3.80;;
40793;SDS011;26502;51.886;15.604;2023-04-05T21:16:42;7.70;;;3.80;;
40793;SDS011;26502;51.886;15.604;2023-04-05T21:21:49;7.20;;;3.80;;
40793;SDS011;26502;51.886;15.604;2023-04-05T21:26:55;7.80;;;3.80;;
40793;SDS011;26502;51.886;15.604;2023-04-05T21:32:01;12.60;;;4.30;;
40793;SDS011;26502;51.886;15.604;2023-04-05T21:37:07;9.20;;;4.40;;
40793;SDS011;26502;51.886;15.604;2023-04-05T21:42:14;9.80;;;4.50;;
40793;SDS011;26502;51.886;15.604;2023-04-05T21:47:20;10.20;;;4.60;;
40793;SDS011;26502;51.886;15.604;2023-04-05T21:52:26;10.90;;;4.70;;
40793;SDS011;26502;51.886;15.604;2023-04-05T21:57:33;13.90;;;4.70;;
40793;SDS011;26502;51.886;15.604;2023-04-05T22:02:40;8.10;;;5.20;;
40793;SDS011;26502;51.886;15.604;2023-04-05T22:07:48;10.60;;;5.80;;
40793;SDS011;26502;51.886;15.604;2023-04-05T22:12:54;10.50;;;5.00;;
40793;SDS011;26502;51.886;15.604;2023-04-05T22:18:01;10.10;;;5.30;;
40793;SDS011;26502;51.886;15.604;2023-04-05T22:23:07;13.80;;;5.60;;
40793;SDS011;26502;51.886;15.604;2023-04-05T22:28:13;12.30;;;5.60;;
40793;SDS011;26502;51.886;15.604;2023-04-05T22:33:19;13.30;;;6.10;;
40793;SDS011;26502;51.886;15.604;2023-04-05T22:38:26;13.40;;;5.50;;
40793;SDS011;26502;51.886;15.604;2023-04-05T22:43:32;10.30;;;5.30;;
40793;SDS011;26502;51.886;15.604;2023-04-05T22:48:38;10.30;;;4.80;;
40793;SDS011;26502;51.886;15.604;2023-04-05T22:53:44;10.10;;;5.30;;
40793;SDS011;26502;51.886;15.604;2023-04-05T22:58:51;13.90;;;6.40;;
40793;SDS011;26502;51.886;15.604;2023-04-05T23:03:57;11.10;;;5.70;;
40793;SDS011;26502;51.886;15.604;2023-04-05T23:09:03;12.50;;;5.90;;
40793;SDS011;26502;51.886;15.604;2023-04-05T23:14:11;12.20;;;6.20;;
40793;SDS011;26502;51.886;15.604;2023-04-05T23:19:18;13.40;;;6.40;;
40793;SDS011;26502;51.886;15.604;2023-04-05T23:24:25;14.90;;;6.40;;
40793;SDS011;26502;51.886;15.604;2023-04-05T23:29:31;9.40;;;5.60;;
40793;SDS011;26502;51.886;15.604;2023-04-05T23:34:38;13.90;;;6.40;;
40793;SDS011;26502;51.886;15.604;2023-04-05T23:39:45;15.70;;;6.10;;
40793;SDS011;26502;51.886;15.604;2023-04-05T23:44:51;15.10;;;7.10;;
40793;SDS011;26502;51.886;15.604;2023-04-05T23:49:57;12.70;;;5.90;;
40793;SDS011;26502;51.886;15.604;2023-04-05T23:55:04;14.60;;;5.90;;
